Terminal Aerodrome Forecast
Issued by NWS La Crosse, WI

Home | Current Version | Previous Version | Text Only | Print | Product List | Glossary On
Versions: 1 2 3 4 5 6 7 8 9 10 11 12 13 14 15 16 17
000
FTUS43 KARX 230520
TAFLSE
TAF
KLSE 230520Z 2306/2406 04003KT P6SM SCT250
     FM231200 12006KT P6SM BKN150
     FM232000 13009KT P6SM VCSH OVC060
     FM232300 13009KT P6SM -SHRA OVC040
     FM240500 12010KT P6SM OVC035=

USA.gov is the U.S. government's official web portal to all federal, state and local government web resources and services.